Time;durP1;ratioP1;P1;durP2;ratioP2;P2;SDS_P1;SDS_P2;PMS_P1;PMS_P2;Temp;Humidity;BMP_temperature;BMP_pressure;BME280_temperature;BME280_humidity;BME280_pressure;Samples;Min_cycle;Max_cycle;Signal;HPM_P1;HPM_P2
2023/09/06 00:01:45;;;;;;;4.13;2.10;;;;;;;23.04;69.74;100544.88;5091300;28;20431;-60
2023/09/06 00:04:10;;;;;;;3.50;2.20;;;;;;;23.05;69.43;100546.50;5108268;28;20182;-60
2023/09/06 00:06:36;;;;;;;4.33;2.47;;;;;;;23.04;69.87;100550.63;5104790;28;20227;-60
2023/09/06 00:09:01;;;;;;;3.27;2.37;;;;;;;23.04;69.68;100544.88;5091943;28;20193;-59
2023/09/06 00:11:27;;;;;;;4.03;2.40;;;;;;;23.04;69.80;100539.09;5090212;28;20189;-59
2023/09/06 00:13:53;;;;;;;3.30;2.40;;;;;;;23.05;69.51;100545.66;5088915;28;20259;-60
2023/09/06 00:16:18;;;;;;;3.23;2.20;;;;;;;23.04;69.57;100547.75;5094101;28;20472;-59
2023/09/06 00:18:44;;;;;;;3.57;2.50;;;;;;;23.03;69.63;100533.75;5088852;28;20405;-60
2023/09/06 00:21:09;;;;;;;2.90;2.07;;;;;;;23.03;69.60;100539.50;5088980;28;20566;-60
2023/09/06 00:23:35;;;;;;;4.20;2.00;;;;;;;23.02;69.51;100535.78;5088523;28;20162;-60
2023/09/06 00:26:00;;;;;;;3.20;2.27;;;;;;;23.02;69.53;100530.03;5109085;28;20184;-59
2023/09/06 00:28:26;;;;;;;3.40;2.33;;;;;;;23.02;69.45;100541.53;5105259;28;20189;-60
2023/09/06 00:30:52;;;;;;;3.47;2.10;;;;;;;23.02;69.50;100534.97;5092359;28;20665;-60
2023/09/06 00:33:17;;;;;;;3.00;2.10;;;;;;;23.02;69.54;100532.09;5104639;28;20225;-60
2023/09/06 00:35:43;;;;;;;3.20;2.03;;;;;;;23.01;69.45;100527.56;5079460;28;20817;-60
2023/09/06 00:38:09;;;;;;;3.87;2.23;;;;;;;23.01;69.75;100534.16;5070250;28;20159;-60
2023/09/06 00:40:37;;;;;;;4.33;2.40;;;;;;;23.01;69.67;100539.91;5090328;28;20591;-60
2023/09/06 00:43:04;;;;;;;2.70;1.93;;;;;;;23.01;69.18;100539.06;5104192;28;20385;-59
2023/09/06 00:45:44;;;;;;;5.50;2.60;;;;;;;23.01;69.57;100541.94;5107929;28;20399;-60
2023/09/06 00:48:29;;;;;;;3.53;2.13;;;;;;;23.00;69.35;100541.16;5101790;28;20940;-60
2023/09/06 00:50:55;;;;;;;3.20;2.27;;;;;;;23.00;69.46;100549.78;5089695;28;20447;-60
2023/09/06 00:53:22;;;;;;;3.67;2.20;;;;;;;23.00;69.17;100535.38;5097389;28;20412;-60
2023/09/06 00:55:48;;;;;;;4.17;2.43;;;;;;;22.99;69.11;100533.75;5095573;28;20466;-60
2023/09/06 00:58:17;;;;;;;3.50;2.47;;;;;;;23.00;69.27;100538.25;5087354;28;20421;-59
2023/09/06 01:00:44;;;;;;;6.97;2.53;;;;;;;22.99;69.30;100535.78;5102900;28;20459;-60
2023/09/06 01:03:09;;;;;;;3.20;2.00;;;;;;;22.99;69.22;100532.91;5103507;28;21142;-60
2023/09/06 01:05:50;;;;;;;3.10;1.93;;;;;;;22.98;69.32;100534.13;5105217;28;20440;-60
2023/09/06 01:08:20;;;;;;;3.00;2.37;;;;;;;22.98;69.20;100528.38;5088389;28;20179;-60
2023/09/06 01:10:46;;;;;;;3.93;2.40;;;;;;;22.98;68.91;100529.19;5074849;28;20428;-60
2023/09/06 01:13:11;;;;;;;3.90;2.47;;;;;;;22.97;68.95;100533.31;5088322;28;20416;-60
2023/09/06 01:15:38;;;;;;;4.30;2.43;;;;;;;22.97;69.29;100527.53;5088153;28;20215;-60
2023/09/06 01:18:04;;;;;;;3.33;2.20;;;;;;;22.97;69.05;100544.00;5069970;28;20170;-60
2023/09/06 01:20:42;;;;;;;3.60;2.47;;;;;;;22.97;69.38;100539.06;5089339;28;20581;-60
2023/09/06 01:23:30;;;;;;;4.97;2.30;;;;;;;22.97;68.91;100530.41;5088110;28;20649;-60
2023/09/06 01:25:55;;;;;;;3.90;2.20;;;;;;;22.98;69.29;100537.03;5100141;28;20781;-60
2023/09/06 01:28:25;;;;;;;4.40;2.10;;;;;;;22.97;69.07;100549.78;5072915;28;20409;-60
2023/09/06 01:30:51;;;;;;;3.10;2.37;;;;;;;22.97;68.90;100544.00;5091669;28;20181;-60
2023/09/06 01:33:17;;;;;;;4.30;2.47;;;;;;;22.96;69.03;100543.19;5110721;28;20944;-59
2023/09/06 01:35:42;;;;;;;3.60;2.20;;;;;;;22.97;68.66;100546.91;5107707;28;20435;-60
2023/09/06 01:38:08;;;;;;;6.03;2.80;;;;;;;22.96;68.85;100543.19;5111219;28;20174;-60
2023/09/06 01:40:33;;;;;;;3.70;2.37;;;;;;;22.96;68.98;100540.31;5101555;28;20553;-60
2023/09/06 01:42:59;;;;;;;3.97;2.30;;;;;;;22.95;69.14;100534.94;5109584;28;20506;-60
2023/09/06 01:45:24;;;;;;;3.20;2.20;;;;;;;22.95;68.82;100535.78;5092810;28;20494;-60
2023/09/06 01:47:50;;;;;;;2.87;2.00;;;;;;;22.94;68.82;100528.38;5110819;28;20630;-60
2023/09/06 01:50:19;;;;;;;3.57;1.80;;;;;;;22.94;68.79;100539.88;5083323;28;20221;-60
2023/09/06 01:52:46;;;;;;;3.30;1.97;;;;;;;22.94;69.28;100534.13;5110999;28;20157;-60
2023/09/06 01:55:11;;;;;;;4.97;2.77;;;;;;;22.94;68.85;100534.13;5104017;28;20519;-60
2023/09/06 01:57:36;;;;;;;3.10;2.10;;;;;;;22.94;69.14;100528.38;5073296;28;20497;-60
2023/09/06 02:00:18;;;;;;;3.60;2.27;;;;;;;22.94;68.80;100531.25;5091263;28;20202;-60
2023/09/06 02:02:44;;;;;;;3.80;2.70;;;;;;;22.93;68.80;100532.47;5104972;28;20189;-60
2023/09/06 02:05:09;;;;;;;3.97;2.63;;;;;;;22.93;68.72;100529.56;5093346;28;20419;-60
2023/09/06 02:07:34;;;;;;;2.83;2.10;;;;;;;22.93;68.88;100541.09;5111805;28;20552;-60
2023/09/06 02:10:00;;;;;;;3.43;2.53;;;;;;;22.92;68.52;100530.81;5107907;28;20694;-60
2023/09/06 02:12:25;;;;;;;4.60;2.40;;;;;;;22.93;68.42;100543.16;5108767;28;20569;-59
2023/09/06 02:14:52;;;;;;;3.50;2.33;;;;;;;22.93;68.47;100534.53;5111784;28;20526;-60
2023/09/06 02:17:20;;;;;;;5.20;2.20;;;;;;;22.92;68.83;100536.56;5111302;28;20542;-60
2023/09/06 02:19:45;;;;;;;2.83;2.10;;;;;;;22.91;68.71;100536.97;5104327;28;20480;-60
2023/09/06 02:22:11;;;;;;;3.00;2.10;;;;;;;22.91;68.43;100537.81;5091587;28;20408;-60
2023/09/06 02:24:39;;;;;;;4.20;2.57;;;;;;;22.90;68.66;100533.28;5091985;28;20798;-59
2023/09/06 02:27:05;;;;;;;3.30;2.47;;;;;;;22.90;68.55;100544.81;5091218;28;20178;-60
2023/09/06 02:29:31;;;;;;;4.27;3.23;;;;;;;22.90;68.19;100539.03;5072796;28;20416;-60
2023/09/06 02:31:56;;;;;;;3.70;2.23;;;;;;;22.90;68.25;100538.22;5099088;28;20209;-60
2023/09/06 02:34:21;;;;;;;4.10;2.20;;;;;;;22.90;68.21;100541.94;5092251;28;20642;-60
2023/09/06 02:36:47;;;;;;;3.37;2.13;;;;;;;22.90;68.24;100538.22;5071780;28;20594;-60
2023/09/06 02:39:15;;;;;;;3.47;2.20;;;;;;;22.89;68.46;100539.44;5089520;28;20658;-59
2023/09/06 02:41:40;;;;;;;6.03;2.77;;;;;;;22.89;67.97;100540.28;5092352;28;20195;-60
2023/09/06 02:44:06;;;;;;;3.23;2.10;;;;;;;22.88;67.89;100546.44;5089519;28;21180;-60
2023/09/06 02:46:33;;;;;;;3.87;2.30;;;;;;;22.88;67.95;100535.72;5089129;28;20908;-60
2023/09/06 02:49:11;;;;;;;4.23;2.23;;;;;;;22.88;68.28;100552.19;5090338;28;20181;-60
2023/09/06 02:51:37;;;;;;;2.80;2.03;;;;;;;22.87;68.13;100536.16;5091718;28;20504;-60
2023/09/06 02:54:03;;;;;;;3.93;2.23;;;;;;;22.86;68.07;100538.19;5089429;28;20428;-60
2023/09/06 02:56:28;;;;;;;3.10;2.20;;;;;;;22.87;68.06;100544.78;5105789;28;20435;-60
2023/09/06 02:58:54;;;;;;;4.30;2.07;;;;;;;22.86;68.03;100546.84;5090706;28;20182;-59
2023/09/06 03:01:19;;;;;;;3.90;2.30;;;;;;;22.85;67.98;100545.19;5089618;28;20162;-60
2023/09/06 03:03:47;;;;;;;4.33;2.10;;;;;;;22.87;67.75;100541.91;5072883;28;20242;-59
2023/09/06 03:06:17;;;;;;;3.50;2.10;;;;;;;22.86;68.09;100543.13;5107533;28;20268;-60
2023/09/06 03:08:45;;;;;;;3.43;2.00;;;;;;;22.86;68.06;100549.72;5073222;28;20431;-60
2023/09/06 03:11:14;;;;;;;3.70;2.50;;;;;;;22.86;67.94;100543.13;5104475;28;20550;-60
2023/09/06 03:13:43;;;;;;;5.07;2.70;;;;;;;22.85;67.82;100548.06;5110641;28;20414;-60
2023/09/06 03:16:13;;;;;;;3.80;2.23;;;;;;;22.86;67.51;100548.88;5110353;28;21343;-59
2023/09/06 03:18:40;;;;;;;3.93;2.60;;;;;;;22.84;67.44;100545.59;5108408;28;20446;-60
2023/09/06 03:21:06;;;;;;;4.37;2.40;;;;;;;22.84;67.96;100546.44;5091815;28;20533;-60
2023/09/06 03:23:32;;;;;;;3.13;2.13;;;;;;;22.84;67.73;100542.72;5102427;28;20914;-60
2023/09/06 03:25:57;;;;;;;3.17;2.23;;;;;;;22.84;67.92;100543.56;5108102;28;20415;-60
2023/09/06 03:28:25;;;;;;;3.60;2.27;;;;;;;22.83;67.88;100550.50;5089549;28;20194;-60
2023/09/06 03:30:51;;;;;;;4.67;2.30;;;;;;;22.83;67.59;100549.69;5072793;28;20170;-59
2023/09/06 03:33:17;;;;;;;3.43;2.40;;;;;;;22.82;67.86;100548.88;5086731;28;20423;-60
2023/09/06 03:35:48;;;;;;;4.50;2.73;;;;;;;22.82;67.36;100542.31;5108994;28;20485;-60
2023/09/06 03:38:17;;;;;;;3.17;2.53;;;;;;;22.81;67.39;100547.22;5091511;28;20253;-60
2023/09/06 03:40:43;;;;;;;3.83;2.03;;;;;;;22.82;67.29;100548.88;5074731;28;20455;-60
2023/09/06 03:43:15;;;;;;;3.40;2.20;;;;;;;22.81;67.54;100552.97;5089634;28;20441;-60
2023/09/06 03:45:58;;;;;;;4.10;2.40;;;;;;;22.81;67.27;100555.84;5090599;28;20723;-59
2023/09/06 03:48:26;;;;;;;3.10;2.13;;;;;;;22.80;67.38;100553.38;5093395;28;20875;-60
2023/09/06 03:50:57;;;;;;;3.10;1.97;;;;;;;22.79;67.29;100546.81;5109718;28;20453;-59
2023/09/06 03:53:26;;;;;;;4.60;3.30;;;;;;;22.80;67.50;100554.22;5109699;28;20430;-60
2023/09/06 03:55:52;;;;;;;3.73;2.60;;;;;;;22.80;67.19;100556.25;5108775;28;20408;-60
2023/09/06 03:58:18;;;;;;;3.30;2.27;;;;;;;22.80;67.32;100562.84;5108974;28;20396;-59
2023/09/06 04:00:44;;;;;;;3.37;2.33;;;;;;;22.79;67.21;100561.22;5108406;28;20516;-60
2023/09/06 04:03:14;;;;;;;4.03;2.60;;;;;;;22.78;67.16;100562.41;5103266;28;20178;-60
2023/09/06 04:05:40;;;;;;;5.10;2.37;;;;;;;22.79;66.92;100558.34;5087583;28;20420;-60
2023/09/06 04:08:09;;;;;;;3.17;2.13;;;;;;;22.79;67.24;100566.13;5098802;28;20446;-60
2023/09/06 04:10:38;;;;;;;3.90;2.30;;;;;;;22.78;66.95;100562.41;5108771;28;20448;-60
2023/09/06 04:13:08;;;;;;;5.37;2.87;;;;;;;22.77;67.20;100563.66;5108890;28;21061;-60
2023/09/06 04:15:37;;;;;;;3.77;2.40;;;;;;;22.78;67.01;100567.38;5108949;28;20547;-59
2023/09/06 04:18:04;;;;;;;5.20;2.30;;;;;;;22.77;67.17;100566.53;5105555;28;20424;-60
2023/09/06 04:20:35;;;;;;;3.90;2.60;;;;;;;22.78;66.89;100573.13;5109125;28;20459;-60
2023/09/06 04:23:00;;;;;;;3.90;3.03;;;;;;;22.78;67.04;100578.88;5096113;28;20793;-60
2023/09/06 04:25:26;;;;;;;3.50;2.10;;;;;;;22.76;66.84;100585.03;5088583;28;20405;-59
2023/09/06 04:27:54;;;;;;;3.40;2.20;;;;;;;22.76;66.64;100587.91;5072766;28;20231;-59
2023/09/06 04:30:24;;;;;;;3.40;2.30;;;;;;;22.76;67.39;100585.03;5087748;28;20400;-60
2023/09/06 04:32:50;;;;;;;3.47;2.33;;;;;;;22.76;67.11;100590.78;5081725;28;20502;-60
2023/09/06 04:35:16;;;;;;;3.27;2.20;;;;;;;22.75;67.07;100589.16;5090102;28;20919;-59
2023/09/06 04:37:42;;;;;;;3.70;2.80;;;;;;;22.75;66.82;100588.31;5071936;28;20405;-59
2023/09/06 04:40:12;;;;;;;3.70;2.60;;;;;;;22.74;66.74;100593.25;5087500;28;20198;-60
2023/09/06 04:42:39;;;;;;;4.90;2.70;;;;;;;22.76;66.81;100607.22;5089994;28;20795;-59
2023/09/06 04:45:11;;;;;;;5.30;2.53;;;;;;;22.73;66.60;100597.34;5088787;28;20400;-59
2023/09/06 04:47:39;;;;;;;4.03;2.60;;;;;;;22.73;66.69;100597.34;5072608;28;20551;-59
2023/09/06 04:50:05;;;;;;;4.07;2.50;;;;;;;22.73;66.85;100597.34;5098126;28;20937;-59
2023/09/06 04:52:33;;;;;;;4.00;2.70;;;;;;;22.72;66.52;100595.69;5106449;28;20432;-59
2023/09/06 04:54:59;;;;;;;3.73;2.77;;;;;;;22.73;66.56;100605.16;5071558;28;20939;-59
2023/09/06 04:57:25;;;;;;;5.00;2.97;;;;;;;22.72;66.31;100601.47;5104824;28;20410;-60
2023/09/06 04:59:50;;;;;;;4.00;2.60;;;;;;;22.71;66.61;100602.69;5099764;28;20198;-60
2023/09/06 05:02:16;;;;;;;3.77;2.47;;;;;;;22.71;66.24;100607.59;5073670;28;20267;-59
2023/09/06 05:04:43;;;;;;;4.27;2.67;;;;;;;22.71;66.40;100608.44;5110555;28;20158;-59
2023/09/06 05:07:08;;;;;;;3.70;2.80;;;;;;;22.71;66.26;100611.31;5087222;28;20255;-59
2023/09/06 05:09:34;;;;;;;3.63;2.43;;;;;;;22.70;66.22;100615.44;5091038;28;20908;-59
2023/09/06 05:12:00;;;;;;;3.57;2.50;;;;;;;22.69;66.30;100616.66;5057231;28;20170;-59
2023/09/06 05:14:25;;;;;;;2.90;2.10;;;;;;;22.69;66.47;100622.44;5076307;28;20800;-59
2023/09/06 05:16:50;;;;;;;6.50;3.10;;;;;;;22.70;65.97;100623.22;5100972;28;20205;-59
2023/09/06 05:19:16;;;;;;;5.47;3.00;;;;;;;22.69;66.25;100622.44;5110282;28;20198;-60
2023/09/06 05:21:41;;;;;;;3.63;2.73;;;;;;;22.69;66.42;100625.31;5107621;28;20177;-58
2023/09/06 05:24:07;;;;;;;3.43;2.27;;;;;;;22.68;65.93;100623.63;5109854;28;20185;-60
2023/09/06 05:26:35;;;;;;;3.27;2.70;;;;;;;22.69;66.21;100627.34;5111341;28;20154;-59
2023/09/06 05:29:00;;;;;;;4.37;2.40;;;;;;;22.68;65.92;100629.38;5107796;28;20200;-59
2023/09/06 05:31:26;;;;;;;3.23;2.40;;;;;;;22.68;66.14;100635.16;5094307;28;20408;-60
2023/09/06 05:33:51;;;;;;;3.97;2.70;;;;;;;22.68;66.04;100640.91;5107290;28;20227;-59
2023/09/06 05:36:17;;;;;;;4.90;2.60;;;;;;;22.68;65.61;100640.91;5098404;28;20211;-60
2023/09/06 05:38:42;;;;;;;4.03;2.80;;;;;;;22.68;66.28;100642.97;5110502;28;20173;-59
2023/09/06 05:41:08;;;;;;;3.30;2.40;;;;;;;22.67;65.94;100645.00;5097040;28;20218;-59
2023/09/06 05:43:34;;;;;;;3.70;2.60;;;;;;;22.67;66.18;100647.88;5091612;28;20194;-59
2023/09/06 05:45:59;;;;;;;5.13;2.77;;;;;;;22.67;66.02;100645.00;5091531;28;20245;-58
2023/09/06 05:48:24;;;;;;;3.57;2.40;;;;;;;22.67;66.23;100647.88;5091460;28;20545;-59
2023/09/06 05:50:50;;;;;;;3.63;2.60;;;;;;;22.67;66.01;100644.19;5093777;28;20198;-59
2023/09/06 05:53:15;;;;;;;3.50;2.43;;;;;;;22.65;65.90;100647.47;5106995;28;20182;-59
2023/09/06 05:55:41;;;;;;;3.87;2.60;;;;;;;22.66;65.99;100637.59;5111640;28;20230;-58
2023/09/06 05:58:06;;;;;;;2.97;2.10;;;;;;;22.65;65.96;100641.72;5099767;28;20226;-59
2023/09/06 06:00:32;;;;;;;4.63;2.80;;;;;;;22.65;66.11;100641.72;5073148;28;20213;-60
2023/09/06 06:02:59;;;;;;;4.30;2.43;;;;;;;22.64;65.94;100631.44;5104934;28;20204;-59
2023/09/06 06:05:24;;;;;;;7.63;3.10;;;;;;;22.65;65.93;100638.00;5079634;28;20194;-59
2023/09/06 06:07:51;;;;;;;3.93;2.67;;;;;;;22.65;65.81;100643.75;5090037;28;20503;-59
2023/09/06 06:10:16;;;;;;;7.03;3.10;;;;;;;22.66;65.77;100645.41;5079729;28;20191;-59
2023/09/06 06:12:43;;;;;;;4.50;2.73;;;;;;;22.65;65.77;100649.50;5111225;28;20423;-59
2023/09/06 06:15:09;;;;;;;3.60;2.40;;;;;;;22.64;66.21;100645.84;5109172;28;20759;-60
2023/09/06 06:17:35;;;;;;;3.87;2.57;;;;;;;22.63;65.94;100644.16;5074073;28;20486;-58
2023/09/06 06:20:01;;;;;;;4.20;2.80;;;;;;;22.64;66.08;100645.00;5071471;28;20456;-59
2023/09/06 06:22:26;;;;;;;4.70;3.23;;;;;;;22.64;66.04;100656.50;5073075;28;20451;-60
2023/09/06 06:24:52;;;;;;;4.60;3.00;;;;;;;22.64;66.12;100650.75;5089261;28;20178;-59
2023/09/06 06:27:18;;;;;;;10.03;3.10;;;;;;;22.63;65.96;100647.03;5088740;28;20189;-59
2023/09/06 06:29:43;;;;;;;4.00;3.17;;;;;;;22.62;66.08;100651.16;5088302;28;20155;-60
2023/09/06 06:32:09;;;;;;;4.80;3.40;;;;;;;22.63;65.95;100649.09;5100286;28;20499;-59
2023/09/06 06:34:38;;;;;;;3.57;2.57;;;;;;;22.63;66.18;100652.78;5109254;28;20212;-59
2023/09/06 06:37:04;;;;;;;4.80;3.17;;;;;;;22.63;66.09;100661.41;5106473;28;20505;-59
2023/09/06 06:39:29;;;;;;;4.70;3.20;;;;;;;22.62;66.16;100658.97;5110257;28;20462;-58
2023/09/06 06:41:55;;;;;;;4.50;3.03;;;;;;;22.61;66.04;100658.13;5110657;28;20243;-59
2023/09/06 06:44:20;;;;;;;3.90;2.70;;;;;;;22.62;66.14;100671.28;5094801;28;20182;-59
2023/09/06 06:46:46;;;;;;;4.97;3.10;;;;;;;22.61;66.33;100669.66;5090680;28;20186;-59
2023/09/06 06:49:11;;;;;;;4.53;2.50;;;;;;;22.62;66.14;100670.47;5098613;28;20198;-59
2023/09/06 06:51:39;;;;;;;4.80;2.80;;;;;;;22.62;66.39;100670.47;5090666;28;20186;-58
2023/09/06 06:54:16;;;;;;;4.23;2.77;;;;;;;22.62;66.24;100667.59;5102877;28;20659;-59
2023/09/06 06:56:41;;;;;;;4.43;2.90;;;;;;;22.60;65.84;100665.13;5090400;28;20439;-58
2023/09/06 06:59:07;;;;;;;4.80;3.17;;;;;;;22.61;66.42;100665.94;5100579;28;20438;-59
2023/09/06 07:01:33;;;;;;;6.77;3.30;;;;;;;22.60;66.16;100676.63;5056935;28;20594;-59
2023/09/06 07:03:59;;;;;;;4.07;2.73;;;;;;;22.60;66.45;100668.00;5090230;28;20178;-60
2023/09/06 07:06:24;;;;;;;4.13;2.70;;;;;;;22.60;66.38;100668.00;5106954;28;20427;-58
2023/09/06 07:08:54;;;;;;;4.80;3.00;;;;;;;22.60;66.36;100664.28;5110628;28;20181;-59
2023/09/06 07:11:19;;;;;;;4.30;3.03;;;;;;;22.60;66.45;100658.53;5099733;28;20286;-58
2023/09/06 07:13:46;;;;;;;4.57;3.00;;;;;;;22.60;66.37;100662.25;5094306;28;20432;-59
2023/09/06 07:16:12;;;;;;;3.83;2.83;;;;;;;22.60;66.46;100664.28;5105828;28;20240;-59
2023/09/06 07:18:37;;;;;;;4.70;3.47;;;;;;;22.60;65.92;100661.41;5107397;28;20436;-59
2023/09/06 07:21:03;;;;;;;5.20;2.60;;;;;;;22.60;65.99;100662.25;5068922;28;20278;-59
2023/09/06 07:23:28;;;;;;;6.07;3.30;;;;;;;22.59;66.30;100662.63;5092890;28;20323;-60
2023/09/06 07:25:53;;;;;;;6.23;3.90;;;;;;;22.60;66.01;100661.41;5100389;28;20190;-58
2023/09/06 07:28:21;;;;;;;5.90;3.27;;;;;;;22.60;66.71;100662.25;5075405;28;20208;-59
2023/09/06 07:30:47;;;;;;;4.77;3.33;;;;;;;22.60;66.38;100667.16;5106869;28;20660;-59
2023/09/06 07:33:12;;;;;;;6.13;3.07;;;;;;;22.59;66.09;100666.34;5089751;28;20432;-60
2023/09/06 07:35:40;;;;;;;6.37;3.90;;;;;;;22.60;66.24;100665.13;5099701;28;20212;-59
2023/09/06 07:38:05;;;;;;;4.07;2.97;;;;;;;22.60;66.33;100668.00;5086235;28;20192;-58
2023/09/06 07:40:31;;;;;;;6.13;3.40;;;;;;;22.60;66.66;100664.28;5096829;28;20468;-59
2023/09/06 07:42:56;;;;;;;4.37;3.13;;;;;;;22.60;66.07;100668.00;5092226;28;20192;-59
2023/09/06 07:45:22;;;;;;;5.87;3.30;;;;;;;22.60;66.25;100670.88;5089629;28;20182;-58
2023/09/06 07:47:47;;;;;;;4.20;3.07;;;;;;;22.61;66.11;100674.56;5076442;28;20655;-59
2023/09/06 07:50:13;;;;;;;4.37;3.23;;;;;;;22.61;66.10;100683.19;5099985;28;20591;-60
2023/09/06 07:52:38;;;;;;;4.83;3.53;;;;;;;22.61;66.15;100671.69;5100404;28;20182;-59
2023/09/06 07:55:05;;;;;;;3.63;3.07;;;;;;;22.61;66.40;100675.41;5103878;28;20186;-59
2023/09/06 07:57:30;;;;;;;5.00;3.13;;;;;;;22.61;66.20;100677.44;5089783;28;20194;-59
2023/09/06 07:59:55;;;;;;;4.73;3.27;;;;;;;22.61;66.28;100672.53;5092662;28;20524;-59
2023/09/06 08:02:22;;;;;;;5.70;3.50;;;;;;;22.61;66.19;100671.69;5094853;28;20244;-59
2023/09/06 08:04:47;;;;;;;5.17;3.33;;;;;;;22.61;66.27;100672.53;5088424;28;20198;-59
2023/09/06 08:07:13;;;;;;;4.73;3.50;;;;;;;22.60;66.41;100673.75;5079526;28;20828;-59
2023/09/06 08:09:38;;;;;;;5.87;3.70;;;;;;;22.61;66.56;100681.16;5088861;28;20201;-59
2023/09/06 08:12:05;;;;;;;5.40;3.10;;;;;;;22.60;66.31;100682.38;5087425;28;20193;-60
2023/09/06 08:14:31;;;;;;;4.70;3.40;;;;;;;22.61;66.17;100683.19;5069242;28;20201;-60
2023/09/06 08:16:56;;;;;;;5.10;3.20;;;;;;;22.61;66.25;100686.91;5092481;28;20472;-59
2023/09/06 08:19:22;;;;;;;5.70;3.70;;;;;;;22.61;66.36;100686.06;5069357;28;20247;-59
2023/09/06 08:21:47;;;;;;;4.70;3.23;;;;;;;22.61;66.27;100695.56;5087135;28;20231;-59
2023/09/06 08:24:13;;;;;;;5.10;3.40;;;;;;;22.61;66.37;100701.31;5092844;28;20193;-59
2023/09/06 08:26:38;;;;;;;4.20;3.00;;;;;;;22.60;66.46;100685.28;5099382;28;20178;-58
2023/09/06 08:29:05;;;;;;;5.23;3.23;;;;;;;22.61;66.49;100686.91;5095747;28;20194;-59
2023/09/06 08:31:31;;;;;;;4.90;3.40;;;;;;;22.61;66.68;100691.84;5090035;28;20980;-59
2023/09/06 08:33:56;;;;;;;4.60;3.10;;;;;;;22.61;66.32;100689.78;5108336;28;20424;-59
2023/09/06 08:36:22;;;;;;;4.80;3.20;;;;;;;22.61;66.48;100691.84;5108709;28;20637;-60
2023/09/06 08:38:47;;;;;;;6.00;3.43;;;;;;;22.61;66.37;100688.94;5103298;28;20209;-59
2023/09/06 08:41:12;;;;;;;6.83;3.50;;;;;;;22.61;66.64;100684.03;5088614;28;20279;-59
2023/09/06 08:43:41;;;;;;;5.03;3.60;;;;;;;22.61;66.75;100689.78;5087852;28;20205;-60
2023/09/06 08:46:11;;;;;;;4.53;3.63;;;;;;;22.62;66.67;100693.50;5090261;28;20185;-59
2023/09/06 08:48:37;;;;;;;5.30;3.80;;;;;;;22.61;66.32;100686.06;5069192;28;20424;-59
2023/09/06 08:51:04;;;;;;;4.80;3.60;;;;;;;22.61;66.25;100689.78;5099519;28;20794;-59
2023/09/06 08:53:29;;;;;;;5.27;3.53;;;;;;;22.62;66.43;100693.50;5108500;28;20639;-59
2023/09/06 08:55:55;;;;;;;4.83;3.17;;;;;;;22.62;66.47;100693.50;5084644;28;20459;-59
2023/09/06 08:58:20;;;;;;;5.00;3.60;;;;;;;22.61;66.94;100691.84;5108123;28;20610;-60
2023/09/06 09:00:46;;;;;;;5.40;3.23;;;;;;;22.61;66.97;100695.56;5098382;28;20651;-60
2023/09/06 09:03:11;;;;;;;5.03;3.40;;;;;;;22.61;66.76;100686.91;5102601;28;20578;-60
2023/09/06 09:05:37;;;;;;;5.90;4.00;;;;;;;22.62;66.82;100693.50;5104362;28;20230;-59
2023/09/06 09:08:04;;;;;;;5.90;3.70;;;;;;;22.62;66.74;100694.31;5087916;28;20732;-59
2023/09/06 09:10:31;;;;;;;4.60;3.30;;;;;;;22.61;66.91;100680.31;5093005;28;20194;-59
2023/09/06 09:12:58;;;;;;;6.33;3.50;;;;;;;22.62;66.79;100688.56;5107732;28;21220;-60
2023/09/06 09:15:26;;;;;;;5.30;3.77;;;;;;;22.62;67.02;100682.81;5104096;28;20407;-59
2023/09/06 09:17:52;;;;;;;5.80;3.63;;;;;;;22.62;66.43;100676.25;5084996;28;20563;-59
2023/09/06 09:20:18;;;;;;;6.70;3.70;;;;;;;22.63;66.71;100687.31;5096566;28;20462;-59
2023/09/06 09:22:44;;;;;;;4.70;3.43;;;;;;;22.62;66.74;100677.03;5087717;28;20860;-60
2023/09/06 09:25:15;;;;;;;5.00;3.60;;;;;;;22.63;66.66;100684.44;5065517;28;20531;-59
2023/09/06 09:27:56;;;;;;;5.90;3.63;;;;;;;22.62;66.65;100684.88;5094177;28;20178;-59
2023/09/06 09:30:21;;;;;;;6.07;3.57;;;;;;;22.63;66.80;100695.97;5085696;28;20515;-59
2023/09/06 09:32:47;;;;;;;4.70;3.60;;;;;;;22.63;66.72;100690.22;5083390;28;20546;-59
2023/09/06 09:35:12;;;;;;;4.77;3.20;;;;;;;22.64;66.63;100691.88;5095696;28;20437;-60
2023/09/06 09:37:42;;;;;;;5.63;3.40;;;;;;;22.64;66.98;100680.38;5097198;28;20208;-59
2023/09/06 09:40:18;;;;;;;7.00;4.30;;;;;;;22.64;66.65;100674.63;5107485;28;20599;-59
2023/09/06 09:42:56;;;;;;;5.57;3.70;;;;;;;22.65;66.66;100678.28;5107214;28;20419;-59
2023/09/06 09:45:25;;;;;;;5.73;3.40;;;;;;;22.64;66.98;100674.63;5110029;28;21306;-59
2023/09/06 09:47:53;;;;;;;4.50;3.33;;;;;;;22.64;67.11;100674.63;5109342;28;20468;-59
2023/09/06 09:50:20;;;;;;;7.23;4.53;;;;;;;22.65;66.41;100664.75;5075049;28;20442;-58
2023/09/06 09:52:46;;;;;;;5.50;3.53;;;;;;;22.65;66.94;100667.63;5070657;28;20485;-59
2023/09/06 09:55:13;;;;;;;6.00;3.77;;;;;;;22.65;66.11;100659.00;5084802;28;20432;-59
2023/09/06 09:57:39;;;;;;;5.87;4.10;;;;;;;22.66;66.12;100666.41;5075297;28;20201;-59
2023/09/06 10:00:09;;;;;;;5.60;3.87;;;;;;;22.66;66.61;100660.63;5092756;28;20496;-60
2023/09/06 10:02:35;;;;;;;7.17;4.47;;;;;;;22.66;66.51;100654.88;5074495;28;20220;-59
2023/09/06 10:05:00;;;;;;;6.30;3.73;;;;;;;22.67;65.89;100656.53;5090784;28;20515;-59
2023/09/06 10:07:26;;;;;;;5.30;3.40;;;;;;;22.67;66.59;100656.53;5091393;28;20415;-60
2023/09/06 10:09:51;;;;;;;8.07;3.43;;;;;;;22.67;67.00;100659.41;5088324;28;20201;-59
2023/09/06 10:12:17;;;;;;;5.00;3.70;;;;;;;22.67;66.61;100656.53;5092390;28;20175;-59
2023/09/06 10:14:42;;;;;;;6.20;3.90;;;;;;;22.68;66.58;100658.16;5089540;28;20171;-59
2023/09/06 10:17:08;;;;;;;4.70;3.70;;;;;;;22.69;66.85;100654.09;5092285;28;20218;-59
2023/09/06 10:19:37;;;;;;;5.27;3.70;;;;;;;22.70;66.25;100660.66;5090537;28;20262;-59
2023/09/06 10:22:04;;;;;;;5.20;3.90;;;;;;;22.69;66.50;100659.84;5072320;28;20454;-60
2023/09/06 10:24:34;;;;;;;7.97;3.90;;;;;;;22.70;66.54;100652.03;5092930;28;20935;-59
2023/09/06 10:27:03;;;;;;;4.90;3.47;;;;;;;22.69;66.36;100648.34;5072428;28;20396;-59
2023/09/06 10:29:29;;;;;;;6.53;4.20;;;;;;;22.70;66.25;100649.97;5097797;28;20435;-59
2023/09/06 10:32:03;;;;;;;5.43;3.63;;;;;;;22.70;66.85;100644.22;5106909;28;21002;-59
2023/09/06 10:34:30;;;;;;;11.80;3.60;;;;;;;22.71;66.55;100645.03;5101461;28;20796;-60
2023/09/06 10:37:00;;;;;;;6.50;3.73;;;;;;;22.72;66.81;100632.31;5093508;28;20554;-60
2023/09/06 10:39:29;;;;;;;6.47;3.70;;;;;;;22.72;66.48;100636.00;5110504;28;20399;-60
2023/09/06 10:42:13;;;;;;;9.70;4.70;;;;;;;22.72;66.37;100641.75;5087873;28;20493;-60
2023/09/06 10:44:54;;;;;;;5.57;3.90;;;;;;;22.73;66.75;100633.97;5104057;28;20407;-59
2023/09/06 10:47:30;;;;;;;5.10;3.73;;;;;;;22.73;66.51;100631.09;5107075;28;20428;-59
2023/09/06 10:50:20;;;;;;;5.13;3.80;;;;;;;22.72;66.38;100620.81;5102057;28;20458;-60
2023/09/06 10:52:53;;;;;;;4.50;3.37;;;;;;;22.75;66.56;100623.69;5086304;28;20787;-59
2023/09/06 10:55:23;;;;;;;7.40;4.60;;;;;;;22.74;66.32;100619.16;5080146;28;20420;-59
2023/09/06 10:58:16;;;;;;;6.30;3.80;;;;;;;22.76;66.33;100624.50;5091704;28;20470;-60
2023/09/06 11:00:42;;;;;;;6.27;4.30;;;;;;;22.75;66.66;100620.81;5085577;28;20460;-59
2023/09/06 11:03:07;;;;;;;4.30;3.30;;;;;;;22.73;66.85;100617.50;5096742;28;21294;-59
2023/09/06 11:05:35;;;;;;;5.53;3.97;;;;;;;22.72;66.82;100607.22;5091298;28;20538;-59
2023/09/06 11:08:00;;;;;;;5.67;3.90;;;;;;;22.73;67.09;100614.63;5106981;28;20169;-60
2023/09/06 11:10:25;;;;;;;4.60;3.40;;;;;;;22.76;67.01;100610.94;5090823;28;20433;-60
2023/09/06 11:12:53;;;;;;;7.70;3.40;;;;;;;22.75;67.48;100614.22;5088664;28;20182;-59
2023/09/06 11:15:19;;;;;;;4.90;3.50;;;;;;;22.75;67.50;100615.06;5072118;28;20218;-59
2023/09/06 11:17:44;;;;;;;5.40;3.90;;;;;;;22.76;67.23;100608.06;5097016;28;20486;-59
2023/09/06 11:20:14;;;;;;;5.87;3.80;;;;;;;22.77;67.08;100600.28;5097306;28;20198;-60
2023/09/06 11:22:49;;;;;;;6.10;3.57;;;;;;;22.76;67.15;100598.59;5093368;28;20189;-59
2023/09/06 11:25:16;;;;;;;6.50;4.27;;;;;;;22.77;67.57;100598.19;5099620;28;20446;-59